Time;durP1;ratioP1;P1;durP2;ratioP2;P2;SDS_P1;SDS_P2;PMS_P1;PMS_P2;Temp;Humidity;BMP_temperature;BMP_pressure;BME280_temperature;BME280_humidity;BME280_pressure;Samples;Min_cycle;Max_cycle;Signal;HPM_P1;HPM_P2
2024/01/27 00:00:09;;;;;;;1.10;1.10;;;6.20;99.90;;;;;;5066725;28;20036;-87
2024/01/27 00:02:35;;;;;;;1.20;1.20;;;6.30;99.90;;;;;;5066378;28;20048;-87
2024/01/27 00:05:02;;;;;;;1.10;1.10;;;6.20;99.90;;;;;;5066073;28;20047;-86
2024/01/27 00:07:28;;;;;;;1.20;1.20;;;6.20;99.90;;;;;;5065378;28;20113;-88
2024/01/27 00:09:55;;;;;;;1.10;1.10;;;6.20;99.90;;;;;;5066633;28;20511;-87
2024/01/27 00:12:21;;;;;;;1.20;1.20;;;6.30;99.90;;;;;;5050549;28;20048;-86
2024/01/27 00:14:47;;;;;;;1.20;1.20;;;6.10;99.90;;;;;;5066655;28;20059;-88
2024/01/27 00:17:12;;;;;;;1.20;1.20;;;6.20;99.90;;;;;;5064188;28;20451;-88
2024/01/27 00:19:38;;;;;;;1.20;1.20;;;6.20;99.90;;;;;;5065038;28;20048;-87
2024/01/27 00:22:04;;;;;;;1.20;1.20;;;6.10;99.90;;;;;;5063193;28;20162;-87
2024/01/27 00:24:30;;;;;;;1.20;1.20;;;6.30;99.90;;;;;;5067329;28;20051;-88
2024/01/27 00:26:55;;;;;;;1.20;1.20;;;6.00;99.90;;;;;;5051144;28;20200;-86
2024/01/27 00:29:21;;;;;;;1.20;1.20;;;6.20;99.90;;;;;;5067046;28;20040;-87
2024/01/27 00:31:49;;;;;;;1.20;1.20;;;6.00;99.90;;;;;;5065570;28;20105;-87
2024/01/27 00:34:14;;;;;;;1.20;1.20;;;6.00;99.90;;;;;;5065626;28;20100;-88
2024/01/27 00:36:42;;;;;;;1.20;1.20;;;6.20;99.90;;;;;;5048945;28;20040;-88
2024/01/27 00:39:08;;;;;;;1.30;1.30;;;6.30;99.90;;;;;;5049872;28;20044;-86
2024/01/27 00:41:34;;;;;;;1.30;1.30;;;6.20;99.90;;;;;;5067560;28;20504;-88
2024/01/27 00:43:59;;;;;;;1.27;1.27;;;6.00;99.90;;;;;;5050641;28;20044;-87
2024/01/27 00:46:25;;;;;;;1.30;1.30;;;6.30;99.90;;;;;;5066399;28;20044;-87
2024/01/27 00:48:51;;;;;;;1.30;1.30;;;6.20;99.90;;;;;;5065209;28;20056;-88
2024/01/27 00:51:16;;;;;;;1.30;1.30;;;6.10;99.90;;;;;;5063342;28;20390;-87
2024/01/27 00:53:42;;;;;;;1.30;1.30;;;6.00;99.90;;;;;;5066493;28;20128;-88
2024/01/27 00:56:08;;;;;;;1.30;1.30;;;6.10;99.90;;;;;;5062058;28;20166;-87
2024/01/27 00:58:34;;;;;;;1.50;1.40;;;6.20;99.90;;;;;;5064581;28;20140;-87
2024/01/27 01:01:01;;;;;;;1.30;1.30;;;6.00;99.90;;;;;;5067630;28;20461;-87
2024/01/27 01:03:26;;;;;;;1.27;1.27;;;6.00;99.90;;;;;;5065702;28;20058;-88
2024/01/27 01:05:52;;;;;;;1.30;1.30;;;6.20;99.90;;;;;;5068578;28;20040;-87
2024/01/27 01:08:18;;;;;;;1.30;1.30;;;6.10;99.90;;;;;;5068333;28;20048;-87
2024/01/27 01:10:44;;;;;;;1.30;1.30;;;5.90;99.90;;;;;;5064071;28;20054;-86
2024/01/27 01:13:10;;;;;;;1.27;1.27;;;6.00;99.90;;;;;;5064484;28;20047;-88
2024/01/27 01:15:36;;;;;;;1.33;1.33;;;6.10;99.90;;;;;;5056961;28;20047;-88
2024/01/27 01:18:03;;;;;;;1.30;1.30;;;6.10;99.90;;;;;;5050214;28;20044;-87
2024/01/27 01:20:30;;;;;;;1.30;1.30;;;6.10;99.90;;;;;;5048061;28;20044;-88
2024/01/27 01:22:56;;;;;;;1.30;1.30;;;6.00;99.90;;;;;;5047930;28;20048;-86
2024/01/27 01:25:21;;;;;;;1.30;1.30;;;6.10;99.90;;;;;;5065359;28;20047;-87
2024/01/27 01:27:49;;;;;;;1.23;1.23;;;6.10;99.90;;;;;;5045350;28;20042;-87
2024/01/27 01:30:15;;;;;;;1.33;1.33;;;6.00;99.90;;;;;;5049824;28;20127;-87
2024/01/27 01:32:41;;;;;;;1.30;1.30;;;6.10;99.90;;;;;;5065614;28;20043;-87
2024/01/27 01:35:07;;;;;;;1.30;1.30;;;5.90;99.90;;;;;;5065226;28;20564;-87
2024/01/27 01:37:32;;;;;;;1.25;1.25;;;5.80;99.90;;;;;;5049053;28;20456;-86
2024/01/27 01:39:58;;;;;;;1.30;1.30;;;6.00;99.90;;;;;;5061758;28;20040;-87
2024/01/27 01:42:24;;;;;;;1.40;1.35;;;6.00;99.90;;;;;;5065491;28;20405;-87
2024/01/27 01:44:51;;;;;;;1.52;1.42;;;6.00;99.90;;;;;;5063992;28;20033;-87
2024/01/27 01:47:17;;;;;;;1.55;1.45;;;6.10;99.90;;;;;;5049566;28;20053;-87
2024/01/27 01:49:43;;;;;;;1.38;1.38;;;6.10;99.90;;;;;;5045952;28;20062;-87
2024/01/27 01:52:10;;;;;;;1.58;1.48;;;6.00;99.90;;;;;;5064897;28;20050;-87
2024/01/27 01:54:36;;;;;;;1.50;1.40;;;6.00;99.90;;;;;;5061742;28;20075;-87
2024/01/27 01:57:03;;;;;;;1.58;1.48;;;5.80;99.90;;;;;;5065614;28;20047;-88
2024/01/27 01:59:29;;;;;;;1.50;1.40;;;5.90;99.90;;;;;;5062557;28;20044;-88
2024/01/27 02:01:55;;;;;;;1.50;1.40;;;5.80;99.90;;;;;;5064294;28;20412;-88
2024/01/27 02:04:21;;;;;;;1.60;1.50;;;5.80;99.90;;;;;;5062541;28;20051;-88
2024/01/27 02:06:46;;;;;;;1.50;1.40;;;5.90;99.90;;;;;;5056181;28;20052;-87
2024/01/27 02:09:12;;;;;;;1.48;1.40;;;5.90;99.90;;;;;;5068949;28;20600;-88
2024/01/27 02:11:38;;;;;;;1.52;1.42;;;5.90;99.90;;;;;;5051559;28;20046;-88
2024/01/27 02:14:04;;;;;;;1.60;1.50;;;6.00;99.90;;;;;;5052149;28;20036;-88
2024/01/27 02:16:30;;;;;;;1.50;1.40;;;6.00;99.90;;;;;;5071051;28;20044;-87
2024/01/27 02:18:56;;;;;;;1.50;1.40;;;5.90;99.90;;;;;;5070376;28;20047;-88
2024/01/27 02:21:21;;;;;;;1.50;1.40;;;5.90;99.90;;;;;;5067271;28;20063;-87
2024/01/27 02:23:47;;;;;;;1.50;1.40;;;6.00;99.90;;;;;;5070165;28;20040;-88
2024/01/27 02:26:13;;;;;;;1.52;1.42;;;5.90;99.90;;;;;;5069245;28;20040;-88
2024/01/27 02:28:38;;;;;;;1.50;1.40;;;5.90;99.90;;;;;;5070512;28;20059;-88
2024/01/27 02:31:04;;;;;;;1.50;1.40;;;5.80;99.90;;;;;;5068601;28;20504;-86
2024/01/27 02:33:30;;;;;;;1.50;1.40;;;6.00;99.90;;;;;;5053885;28;20040;-86
2024/01/27 02:35:56;;;;;;;1.50;1.40;;;5.90;99.90;;;;;;5053674;28;20042;-87
2024/01/27 02:38:21;;;;;;;1.48;1.40;;;6.00;99.90;;;;;;5053538;28;20123;-87
2024/01/27 02:40:47;;;;;;;1.65;1.55;;;6.00;99.90;;;;;;5063698;28;20416;-87
2024/01/27 02:43:13;;;;;;;1.73;1.63;;;5.80;99.90;;;;;;5070739;28;20048;-88
2024/01/27 02:45:38;;;;;;;1.60;1.50;;;5.80;99.90;;;;;;5071255;28;20036;-88
2024/01/27 02:48:04;;;;;;;1.67;1.58;;;6.00;99.90;;;;;;5070365;28;20051;-88
2024/01/27 02:50:30;;;;;;;1.52;1.42;;;5.70;99.90;;;;;;5053023;28;20670;-87
2024/01/27 02:52:56;;;;;;;1.50;1.40;;;5.90;99.90;;;;;;5052107;28;20078;-87
2024/01/27 02:55:21;;;;;;;1.60;1.50;;;5.90;99.90;;;;;;5065820;28;20087;-87
2024/01/27 02:57:47;;;;;;;1.60;1.50;;;5.70;99.90;;;;;;5052348;28;20501;-88
2024/01/27 03:00:13;;;;;;;1.50;1.40;;;6.00;99.90;;;;;;5072800;28;20047;-87
2024/01/27 03:02:39;;;;;;;1.50;1.40;;;6.00;99.90;;;;;;5068597;28;20051;-87
2024/01/27 03:05:05;;;;;;;1.50;1.40;;;6.00;99.90;;;;;;5052890;28;20087;-88
2024/01/27 03:07:31;;;;;;;1.50;1.40;;;5.80;99.90;;;;;;5067409;28;20050;-87
2024/01/27 03:09:56;;;;;;;1.50;1.40;;;5.70;99.90;;;;;;5069618;28;20047;-89
2024/01/27 03:12:23;;;;;;;1.58;1.48;;;5.60;99.90;;;;;;5068191;28;20459;-88
2024/01/27 03:14:49;;;;;;;1.60;1.50;;;5.60;99.90;;;;;;5070562;28;20100;-87
2024/01/27 03:17:16;;;;;;;1.30;1.30;;;5.70;99.90;;;;;;5055063;28;20127;-88
2024/01/27 03:19:41;;;;;;;1.60;1.50;;;5.50;99.90;;;;;;5051916;28;20044;-87
2024/01/27 03:22:07;;;;;;;1.50;1.40;;;5.70;99.90;;;;;;5066629;28;20044;-89
2024/01/27 03:24:33;;;;;;;1.60;1.50;;;5.60;99.90;;;;;;5068493;28;20051;-88
2024/01/27 03:26:58;;;;;;;1.50;1.40;;;5.90;99.90;;;;;;5064203;28;20066;-88
2024/01/27 03:29:24;;;;;;;1.45;1.40;;;5.80;99.90;;;;;;5067637;28;20048;-87
2024/01/27 03:31:50;;;;;;;1.58;1.48;;;5.70;99.90;;;;;;5069787;28;20516;-88
2024/01/27 03:34:19;;;;;;;1.60;1.50;;;5.60;99.90;;;;;;5068274;28;20105;-87
2024/01/27 03:36:48;;;;;;;1.50;1.40;;;5.50;99.90;;;;;;5053511;28;20082;-87
2024/01/27 03:39:14;;;;;;;1.50;1.40;;;5.60;99.90;;;;;;5050131;28;20036;-88
2024/01/27 03:41:40;;;;;;;1.42;1.40;;;5.40;99.90;;;;;;5069747;28;20047;-87
2024/01/27 03:44:05;;;;;;;1.40;1.40;;;5.60;99.90;;;;;;5069909;28;20087;-87
2024/01/27 03:46:31;;;;;;;1.40;1.40;;;5.60;99.90;;;;;;5071692;28;20062;-86
2024/01/27 03:48:56;;;;;;;1.50;1.40;;;5.60;99.90;;;;;;5068401;28;20060;-88
2024/01/27 03:51:23;;;;;;;1.50;1.40;;;5.40;99.90;;;;;;5063272;28;20055;-88
2024/01/27 03:53:48;;;;;;;1.40;1.40;;;5.40;99.90;;;;;;5050533;28;20040;-88
2024/01/27 03:56:14;;;;;;;1.50;1.40;;;5.50;99.90;;;;;;5051766;28;20044;-87
2024/01/27 03:58:40;;;;;;;1.48;1.40;;;5.60;99.90;;;;;;5072796;28;20048;-87
2024/01/27 04:01:06;;;;;;;1.50;1.40;;;5.30;99.90;;;;;;5060393;28;20394;-88
2024/01/27 04:03:32;;;;;;;1.30;1.30;;;5.50;99.90;;;;;;5051451;28;20048;-87
2024/01/27 04:05:57;;;;;;;1.27;1.27;;;5.20;99.90;;;;;;5049760;28;20048;-87
2024/01/27 04:08:23;;;;;;;1.35;1.33;;;5.40;99.90;;;;;;5070069;28;20515;-87
2024/01/27 04:10:49;;;;;;;1.35;1.35;;;5.30;99.90;;;;;;5064265;28;20040;-87
2024/01/27 04:13:15;;;;;;;1.23;1.23;;;5.20;99.90;;;;;;5068268;28;20122;-87
2024/01/27 04:15:41;;;;;;;1.30;1.30;;;5.20;99.90;;;;;;5053144;28;20044;-87
2024/01/27 04:18:08;;;;;;;1.35;1.35;;;5.00;99.90;;;;;;5053663;28;20052;-87
2024/01/27 04:20:36;;;;;;;1.48;1.40;;;5.00;99.90;;;;;;5051831;28;20048;-88
2024/01/27 04:23:03;;;;;;;1.30;1.30;;;5.10;99.90;;;;;;5067746;28;20051;-88
2024/01/27 04:25:28;;;;;;;1.33;1.33;;;4.90;99.90;;;;;;5051621;28;20131;-87
2024/01/27 04:27:54;;;;;;;1.40;1.35;;;5.20;99.90;;;;;;5052851;28;20146;-88
2024/01/27 04:30:20;;;;;;;1.20;1.20;;;4.90;99.90;;;;;;5067085;28;20048;-88
2024/01/27 04:32:46;;;;;;;1.20;1.20;;;5.20;99.90;;;;;;5051114;28;20048;-88
2024/01/27 04:35:12;;;;;;;1.30;1.30;;;4.90;99.90;;;;;;5067234;28;21666;-88
2024/01/27 04:37:38;;;;;;;1.25;1.25;;;5.20;99.90;;;;;;5052444;28;20043;-89
2024/01/27 04:40:05;;;;;;;1.20;1.20;;;4.90;99.90;;;;;;5066584;28;20078;-88
2024/01/27 04:42:34;;;;;;;1.20;1.20;;;5.20;99.90;;;;;;5071816;28;20371;-88
2024/01/27 04:45:00;;;;;;;1.23;1.23;;;5.10;99.90;;;;;;5052133;28;20051;-87
2024/01/27 04:47:25;;;;;;;1.23;1.23;;;5.20;99.90;;;;;;5067009;28;20833;-87
2024/01/27 04:49:51;;;;;;;1.10;1.10;;;5.20;99.90;;;;;;5053739;28;20047;-88
2024/01/27 04:52:17;;;;;;;1.20;1.20;;;5.10;99.90;;;;;;5067308;28;20508;-88
2024/01/27 04:54:43;;;;;;;1.20;1.20;;;5.10;99.90;;;;;;5067199;28;20075;-88
2024/01/27 04:57:09;;;;;;;1.20;1.20;;;5.00;99.90;;;;;;5052588;28;20052;-87
2024/01/27 04:59:35;;;;;;;1.20;1.20;;;4.70;99.90;;;;;;5067004;28;20048;-88
2024/01/27 05:02:01;;;;;;;1.13;1.13;;;4.90;99.90;;;;;;5052036;28;20047;-88
2024/01/27 05:04:27;;;;;;;1.13;1.13;;;4.80;99.90;;;;;;5067156;28;20457;-88
2024/01/27 05:06:53;;;;;;;1.20;1.20;;;4.70;99.90;;;;;;5067650;28;20035;-88
2024/01/27 05:09:19;;;;;;;1.15;1.15;;;5.00;99.90;;;;;;5052754;28;20181;-88
2024/01/27 05:11:45;;;;;;;1.20;1.20;;;5.00;99.90;;;;;;5069154;28;20091;-87
2024/01/27 05:14:11;;;;;;;1.20;1.20;;;5.10;99.90;;;;;;5067761;28;20393;-87
2024/01/27 05:16:37;;;;;;;1.23;1.23;;;5.00;99.90;;;;;;5067279;28;20516;-88
2024/01/27 05:19:03;;;;;;;1.10;1.10;;;5.10;99.90;;;;;;5051227;28;20047;-88
2024/01/27 05:21:28;;;;;;;1.10;1.10;;;5.10;99.90;;;;;;5068002;28;20040;-86
2024/01/27 05:23:54;;;;;;;1.10;1.10;;;4.50;99.90;;;;;;5053596;28;20043;-88
2024/01/27 05:26:21;;;;;;;1.20;1.20;;;5.00;99.90;;;;;;5052374;28;20048;-87
2024/01/27 05:28:46;;;;;;;1.17;1.17;;;4.90;99.90;;;;;;5051267;28;20644;-88
2024/01/27 05:31:12;;;;;;;1.10;1.10;;;4.90;99.90;;;;;;5073232;28;20043;-88
2024/01/27 05:33:39;;;;;;;1.20;1.20;;;5.00;99.90;;;;;;5052452;28;20044;-88
2024/01/27 05:36:05;;;;;;;1.20;1.20;;;5.00;99.90;;;;;;5049327;28;20040;-88
2024/01/27 05:38:31;;;;;;;1.20;1.20;;;4.40;99.90;;;;;;5067687;28;20123;-88
2024/01/27 05:41:01;;;;;;;1.20;1.20;;;4.50;99.90;;;;;;5069566;28;20136;-86
2024/01/27 05:43:27;;;;;;;1.20;1.20;;;4.90;99.90;;;;;;5071450;28;20061;-89
2024/01/27 05:45:53;;;;;;;1.25;1.25;;;4.50;99.90;;;;;;5072798;28;20040;-88
2024/01/27 05:48:19;;;;;;;1.27;1.27;;;4.50;99.90;;;;;;5054962;28;20131;-87
2024/01/27 05:50:58;;;;;;;1.30;1.30;;;4.50;99.90;;;;;;5054749;28;20367;-88
2024/01/27 05:53:25;;;;;;;1.23;1.23;;;4.80;99.90;;;;;;5071392;28;20036;-89
2024/01/27 05:55:51;;;;;;;1.40;1.35;;;4.70;99.90;;;;;;5055839;28;20048;-88
2024/01/27 05:58:17;;;;;;;1.30;1.30;;;5.00;99.90;;;;;;5054144;28;20113;-87
2024/01/27 06:00:46;;;;;;;1.20;1.20;;;4.70;99.90;;;;;;5057801;28;20043;-89
2024/01/27 06:03:13;;;;;;;1.23;1.23;;;5.20;99.90;;;;;;5073023;28;20118;-88
2024/01/27 06:05:39;;;;;;;1.20;1.20;;;4.70;99.90;;;;;;5070502;28;20058;-88
2024/01/27 06:08:05;;;;;;;1.30;1.30;;;4.50;99.90;;;;;;5072671;28;20119;-88
2024/01/27 06:10:31;;;;;;;1.20;1.20;;;5.20;99.90;;;;;;5055692;28;20044;-88
2024/01/27 06:12:57;;;;;;;1.25;1.25;;;5.30;99.90;;;;;;5072808;28;20051;-89
2024/01/27 06:15:23;;;;;;;1.55;1.45;;;4.80;99.90;;;;;;5070955;28;20040;-87
2024/01/27 06:17:48;;;;;;;1.23;1.23;;;5.00;99.90;;;;;;5073240;28;20046;-87
2024/01/27 06:20:17;;;;;;;1.20;1.20;;;5.40;99.90;;;;;;5054660;28;20072;-88
2024/01/27 06:22:42;;;;;;;1.25;1.25;;;4.70;99.90;;;;;;5072283;28;20048;-88
2024/01/27 06:25:10;;;;;;;1.20;1.20;;;5.30;99.90;;;;;;5071719;28;20067;-88
2024/01/27 06:27:37;;;;;;;1.30;1.30;;;5.20;99.90;;;;;;5072331;28;20051;-88
2024/01/27 06:30:03;;;;;;;1.10;1.10;;;4.70;99.90;;;;;;5054057;28;20093;-88
2024/01/27 06:32:29;;;;;;;1.20;1.20;;;4.70;99.90;;;;;;5069196;28;20241;-88
2024/01/27 06:34:55;;;;;;;1.20;1.20;;;5.30;99.90;;;;;;5057290;28;20115;-88
2024/01/27 06:37:20;;;;;;;1.13;1.13;;;5.20;99.90;;;;;;5055921;28;20075;-88
2024/01/27 06:39:46;;;;;;;1.10;1.10;;;4.70;99.90;;;;;;5072959;28;20044;-88
2024/01/27 06:42:12;;;;;;;1.10;1.10;;;5.30;99.90;;;;;;5072562;28;20044;-88
2024/01/27 06:44:37;;;;;;;1.20;1.20;;;4.70;99.90;;;;;;5070972;28;20405;-88
2024/01/27 06:47:03;;;;;;;1.20;1.20;;;5.20;99.90;;;;;;5070773;28;20379;-89
2024/01/27 06:49:29;;;;;;;1.10;1.10;;;4.70;99.90;;;;;;5071661;28;20158;-88
2024/01/27 06:51:54;;;;;;;1.20;1.20;;;5.10;99.90;;;;;;5055336;28;20132;-87
2024/01/27 06:54:20;;;;;;;1.20;1.20;;;4.50;99.90;;;;;;5065720;28;20051;-88
2024/01/27 06:56:46;;;;;;;1.20;1.20;;;5.00;99.90;;;;;;5070181;28;20105;-87
2024/01/27 06:59:12;;;;;;;1.17;1.17;;;5.10;99.90;;;;;;5054995;28;20535;-87
2024/01/27 07:01:37;;;;;;;1.20;1.20;;;4.60;99.90;;;;;;5056224;28;20096;-87
2024/01/27 07:04:03;;;;;;;1.20;1.20;;;5.10;99.90;;;;;;5054226;28;20124;-88
2024/01/27 07:06:29;;;;;;;1.20;1.20;;;4.80;99.90;;;;;;5053854;28;20051;-87
2024/01/27 07:08:55;;;;;;;1.38;1.35;;;4.50;99.90;;;;;;5054319;28;20048;-88
2024/01/27 07:11:21;;;;;;;1.20;1.20;;;5.20;99.90;;;;;;5072423;28;20515;-87
2024/01/27 07:13:46;;;;;;;1.20;1.20;;;4.80;99.90;;;;;;5070218;28;20071;-88
2024/01/27 07:16:12;;;;;;;1.23;1.23;;;5.00;99.90;;;;;;5069333;28;20485;-87
2024/01/27 07:18:37;;;;;;;1.20;1.20;;;5.10;99.90;;;;;;5069255;28;20104;-86
2024/01/27 07:21:03;;;;;;;1.17;1.17;;;4.40;99.90;;;;;;5072333;28;20430;-87
2024/01/27 07:23:29;;;;;;;1.25;1.25;;;5.20;99.90;;;;;;5068664;28;20084;-87
2024/01/27 07:25:55;;;;;;;1.20;1.20;;;4.40;99.90;;;;;;5071560;28;20126;-89
2024/01/27 07:28:20;;;;;;;1.23;1.23;;;4.50;99.90;;;;;;5070811;28;20490;-87
2024/01/27 07:30:46;;;;;;;1.27;1.27;;;5.30;99.90;;;;;;5070276;28;20047;-88
2024/01/27 07:33:12;;;;;;;1.25;1.25;;;4.50;99.90;;;;;;5070263;28;20051;-87
2024/01/27 07:35:38;;;;;;;1.25;1.25;;;5.00;99.90;;;;;;5069819;28;20040;-87
2024/01/27 07:38:03;;;;;;;1.23;1.23;;;5.20;99.90;;;;;;5052817;28;20043;-88
2024/01/27 07:40:29;;;;;;;1.20;1.20;;;5.20;99.90;;;;;;5053345;28;20044;-88
2024/01/27 07:42:55;;;;;;;1.20;1.20;;;4.90;99.90;;;;;;5051395;28;20086;-87
2024/01/27 07:45:21;;;;;;;1.10;1.10;;;4.60;99.90;;;;;;5069153;28;20078;-88
2024/01/27 07:47:46;;;;;;;1.13;1.13;;;5.20;99.90;;;;;;5067230;28;20076;-87
2024/01/27 07:50:12;;;;;;;1.20;1.20;;;4.70;99.90;;;;;;5070063;28;20486;-88
2024/01/27 07:52:38;;;;;;;1.17;1.17;;;4.70;99.90;;;;;;5051385;28;20040;-89
2024/01/27 07:55:04;;;;;;;1.25;1.25;;;5.40;99.90;;;;;;5068007;28;20040;-88
2024/01/27 07:57:29;;;;;;;1.15;1.15;;;4.90;99.90;;;;;;5062472;28;20127;-88
2024/01/27 07:59:55;;;;;;;1.10;1.10;;;5.50;99.90;;;;;;5068297;28;20100;-87
2024/01/27 08:02:21;;;;;;;1.10;1.10;;;5.60;99.90;;;;;;5072038;28;20748;-88
2024/01/27 08:04:47;;;;;;;1.10;1.10;;;5.60;99.90;;;;;;5065476;28;20052;-90
2024/01/27 08:07:14;;;;;;;1.10;1.10;;;5.00;99.90;;;;;;5069893;28;20548;-88
2024/01/27 08:09:40;;;;;;;1.08;1.08;;;5.70;99.90;;;;;;5068972;28;20040;-87
2024/01/27 08:12:09;;;;;;;1.15;1.15;;;5.70;99.90;;;;;;5071864;28;20913;-87
2024/01/27 08:14:35;;;;;;;1.05;1.05;;;5.40;99.90;;;;;;5065836;28;20401;-88
2024/01/27 08:17:03;;;;;;;1.10;1.10;;;5.40;99.90;;;;;;5069363;28;20060;-88
2024/01/27 08:19:28;;;;;;;1.05;1.05;;;5.90;99.90;;;;;;5051629;28;20044;-86
2024/01/27 08:21:54;;;;;;;1.00;1.00;;;5.60;99.90;;;;;;5070686;28;20105;-87
2024/01/27 08:24:20;;;;;;;1.10;1.10;;;5.90;99.90;;;;;;5070534;28;20059;-90
2024/01/27 08:26:48;;;;;;;1.02;1.02;;;5.70;99.90;;;;;;5068519;28;20051;-89
2024/01/27 08:29:14;;;;;;;1.10;1.10;;;6.10;99.90;;;;;;5070304;28;20078;-87
2024/01/27 08:31:39;;;;;;;1.23;1.23;;;5.90;99.90;;;;;;5071327;28;20489;-89
2024/01/27 08:34:05;;;;;;;1.10;1.10;;;6.10;99.90;;;;;;5053203;28;20040;-88
2024/01/27 08:36:32;;;;;;;1.30;1.30;;;6.10;99.90;;;;;;5059176;28;20052;-87
2024/01/27 08:38:57;;;;;;;1.20;1.20;;;6.30;99.90;;;;;;5067015;28;20048;-88
2024/01/27 08:41:24;;;;;;;1.30;1.30;;;6.40;99.90;;;;;;5070367;28;20421;-88
2024/01/27 08:43:49;;;;;;;1.25;1.25;;;6.70;99.90;;;;;;5067114;28;20044;-87
2024/01/27 08:46:17;;;;;;;1.27;1.27;;;6.70;99.90;;;;;;5050325;28;20047;-87
2024/01/27 08:48:43;;;;;;;1.17;1.17;;;6.70;99.90;;;;;;5051588;28;20044;-86
2024/01/27 08:51:12;;;;;;;1.20;1.20;;;6.90;99.90;;;;;;5051653;28;20059;-86
2024/01/27 08:53:38;;;;;;;1.10;1.10;;;6.80;99.90;;;;;;5048961;28;20145;-86
2024/01/27 08:56:04;;;;;;;1.08;1.08;;;6.90;99.90;;;;;;5048330;28;20043;-87
2024/01/27 08:58:31;;;;;;;1.10;1.10;;;7.10;99.90;;;;;;5064767;28;20052;-87
2024/01/27 09:00:57;;;;;;;1.10;1.10;;;7.10;99.90;;;;;;5040124;28;20122;-86
2024/01/27 09:03:22;;;;;;;1.20;1.20;;;7.20;99.90;;;;;;5062081;28;20553;-86
2024/01/27 09:05:48;;;;;;;1.10;1.10;;;7.20;99.90;;;;;;5062492;28;20036;-87
2024/01/27 09:08:15;;;;;;;1.10;1.10;;;7.40;99.90;;;;;;5067696;28;20040;-87
2024/01/27 09:10:41;;;;;;;1.00;1.00;;;7.30;99.90;;;;;;5067027;28;20048;-87
2024/01/27 09:13:07;;;;;;;1.00;1.00;;;7.50;99.90;;;;;;5054402;28;20085;-88
2024/01/27 09:15:33;;;;;;;1.00;1.00;;;7.50;99.90;;;;;;5050731;28;20043;-88
2024/01/27 09:17:59;;;;;;;0.90;0.90;;;7.50;99.90;;;;;;5073927;28;20043;-87
2024/01/27 09:20:24;;;;;;;0.90;0.90;;;7.60;99.90;;;;;;5071961;28;20129;-88
2024/01/27 09:22:50;;;;;;;0.90;0.90;;;7.60;99.90;;;;;;5055545;28;20040;-87
2024/01/27 09:25:16;;;;;;;0.90;0.90;;;7.70;99.90;;;;;;5054580;28;20040;-89
2024/01/27 09:27:42;;;;;;;0.95;0.95;;;7.90;99.90;;;;;;5054231;28;20051;-87
2024/01/27 09:30:08;;;;;;;1.00;1.00;;;8.00;99.90;;;;;;5055438;28;20580;-87
2024/01/27 09:32:34;;;;;;;0.90;0.90;;;8.00;99.90;;;;;;5056388;28;20105;-87
2024/01/27 09:35:00;;;;;;;0.90;0.90;;;8.10;99.90;;;;;;5069746;28;20048;-87
2024/01/27 09:37:26;;;;;;;0.93;0.93;;;8.20;99.90;;;;;;5057300;28;20473;-87
2024/01/27 09:39:51;;;;;;;1.00;1.00;;;8.30;99.90;;;;;;5070862;28;20048;-87
2024/01/27 09:42:20;;;;;;;1.02;1.02;;;8.30;99.90;;;;;;5070178;28;20052;-86
2024/01/27 09:44:48;;;;;;;1.00;1.00;;;8.40;67.00;;;;;;5067883;28;20207;-86
2024/01/27 09:47:15;;;;;;;1.00;1.00;;;8.50;6.40;;;;;;5068778;28;20408;-87
2024/01/27 09:49:42;;;;;;;1.00;1.00;;;8.60;1.00;;;;;;5051717;28;20052;-86
2024/01/27 09:52:08;;;;;;;1.00;1.00;;;8.70;1.00;;;;;;5070024;28;20127;-87
2024/01/27 09:54:36;;;;;;;1.00;1.00;;;8.80;1.00;;;;;;5068978;28;20098;-87
2024/01/27 09:57:02;;;;;;;1.08;1.08;;;8.80;1.00;;;;;;5051343;28;20052;-87
2024/01/27 09:59:29;;;;;;;1.20;1.20;;;8.90;1.00;;;;;;5070122;28;20055;-86
2024/01/27 10:01:57;;;;;;;1.10;1.10;;;9.00;99.90;;;;;;5055733;28;20036;-87
2024/01/27 10:04:25;;;;;;;1.10;1.10;;;9.10;99.90;;;;;;5050916;28;20063;-85
2024/01/27 10:06:51;;;;;;;1.13;1.13;;;9.20;99.90;;;;;;5068428;28;20051;-85
2024/01/27 10:09:18;;;;;;;1.20;1.20;;;9.20;99.90;;;;;;5069801;28;20050;-86
2024/01/27 10:11:49;;;;;;;1.40;1.40;;;9.20;99.90;;;;;;5081918;28;20054;-86
2024/01/27 10:14:15;;;;;;;1.30;1.30;;;9.30;94.30;;;;;;5069021;28;20067;-85
2024/01/27 10:16:45;;;;;;;1.33;1.33;;;9.30;33.20;;;;;;5051642;28;20048;-87
2024/01/27 10:19:19;;;;;;;1.60;1.50;;;9.30;1.00;;;;;;5052113;28;20051;-86
2024/01/27 10:21:44;;;;;;;;;;;9.30;1.00;;;;;;5068223;28;20044;-85
2024/01/27 10:24:10;;;;;;;1.65;1.55;;;9.30;1.00;;;;;;5067827;28;19924;-86
2024/01/27 10:26:36;;;;;;;1.60;1.50;;;9.30;1.00;;;;;;5050717;28;20087;-86
2024/01/27 10:29:02;;;;;;;1.77;1.67;;;9.30;1.00;;;;;;5068029;28;20059;-86
2024/01/27 10:31:28;;;;;;;1.58;1.48;;;9.30;99.90;;;;;;5052350;28;20048;-86
2024/01/27 10:33:56;;;;;;;1.58;1.48;;;9.40;1.00;;;;;;5062931;28;20122;-85
2024/01/27 10:36:44;;;;;;;1.80;1.70;;;9.40;1.00;;;;;;5066123;28;20096;-85
2024/01/27 10:39:21;;;;;;;4.13;3.88;;;9.50;1.00;;;;;;5066751;28;20447;-86
2024/01/27 10:41:47;;;;;;;1.80;1.70;;;9.60;1.00;;;;;;5068308;28;20044;-86
2024/01/27 10:44:20;;;;;;;1.77;1.67;;;9.70;1.00;;;;;;5067544;28;20062;-85
2024/01/27 10:46:48;;;;;;;1.80;1.70;;;9.80;1.00;;;;;;5063500;28;20044;-85
2024/01/27 10:49:15;;;;;;;2.00;1.90;;;9.80;1.00;;;;;;5087380;28;20519;-86
2024/01/27 10:51:45;;;;;;;2.00;1.90;;;9.90;99.90;;;;;;5066458;28;20043;-86
2024/01/27 10:54:18;;;;;;;1.92;1.83;;;10.00;99.90;;;;;;5068887;28;20070;-86
2024/01/27 10:56:45;;;;;;;1.98;1.88;;;9.90;99.90;;;;;;5067384;28;20109;-86
2024/01/27 10:59:13;;;;;;;2.22;2.13;;;10.00;99.90;;;;;;5067686;28;20473;-86
2024/01/27 11:01:41;;;;;;;2.15;2.05;;;10.10;99.90;;;;;;5051499;28;20055;-87
2024/01/27 11:04:09;;;;;;;2.72;2.60;;;10.10;99.90;;;;;;5065867;28;20079;-86
2024/01/27 11:06:36;;;;;;;2.40;2.30;;;10.20;99.90;;;;;;5067512;28;20066;-86
2024/01/27 11:09:05;;;;;;;2.53;2.42;;;10.30;99.90;;;;;;5066316;28;20546;-85
2024/01/27 11:11:31;;;;;;;2.63;2.53;;;10.30;99.90;;;;;;5051881;28;20236;-85
2024/01/27 11:13:58;;;;;;;3.00;2.80;;;10.30;99.90;;;;;;5051116;28;20086;-85
2024/01/27 11:16:24;;;;;;;3.10;2.90;;;10.40;99.90;;;;;;5069872;28;20638;-86
2024/01/27 11:18:50;;;;;;;2.83;2.65;;;10.50;99.90;;;;;;5066359;28;20052;-85
2024/01/27 11:21:17;;;;;;;3.30;3.10;;;10.60;19.20;;;;;;5070652;28;20048;-85
2024/01/27 11:23:44;;;;;;;4.03;3.83;;;10.60;3.70;;;;;;5053606;28;20047;-85
2024/01/27 11:26:14;;;;;;;3.05;2.85;;;10.80;1.00;;;;;;5067888;28;20050;-85
2024/01/27 11:28:40;;;;;;;3.15;2.95;;;10.90;1.00;;;;;;5048687;28;20044;-85
2024/01/27 11:31:07;;;;;;;3.80;3.60;;;11.00;1.00;;;;;;5047602;28;20106;-86
2024/01/27 11:33:33;;;;;;;4.43;4.13;;;11.10;1.00;;;;;;5047435;28;20057;-86
2024/01/27 11:36:06;;;;;;;3.28;3.08;;;11.20;1.00;;;;;;5062423;28;20649;-86
2024/01/27 11:38:32;;;;;;;3.60;3.40;;;11.30;1.00;;;;;;5062241;28;20124;-85
2024/01/27 11:41:00;;;;;;;3.42;3.22;;;11.30;1.00;;;;;;5065324;28;20633;-85
2024/01/27 11:43:26;;;;;;;3.30;3.10;;;11.40;99.90;;;;;;5064688;28;20492;-85
2024/01/27 11:45:59;;;;;;;4.00;3.80;;;11.40;99.90;;;;;;5064175;28;20059;-84
2024/01/27 11:48:25;;;;;;;5.13;4.82;;;11.50;99.90;;;;;;5062685;28;20063;-85
2024/01/27 11:51:07;;;;;;;3.75;3.55;;;11.60;99.90;;;;;;5064288;28;20040;-85
2024/01/27 11:53:34;;;;;;;3.72;3.53;;;11.70;99.90;;;;;;5064338;28;20047;-85
2024/01/27 11:56:01;;;;;;;4.57;4.35;;;11.80;99.90;;;;;;5063434;28;20054;-85
2024/01/27 11:58:27;;;;;;;3.53;3.33;;;11.90;99.90;;;;;;5082285;28;20047;-84
2024/01/27 12:00:53;;;;;;;4.35;4.15;;;11.90;99.90;;;;;;5048825;28;20083;-84
2024/01/27 12:03:19;;;;;;;3.65;3.45;;;12.00;99.90;;;;;;5065062;28;20043;-85
2024/01/27 12:05:45;;;;;;;3.08;2.92;;;12.00;99.90;;;;;;5047199;28;20097;-84
2024/01/27 12:08:11;;;;;;;3.35;3.17;;;12.10;99.90;;;;;;5060517;28;20508;-85
2024/01/27 12:10:37;;;;;;;5.28;4.97;;;12.20;99.90;;;;;;5061784;28;20725;-85
2024/01/27 12:13:03;;;;;;;3.58;3.38;;;12.30;99.90;;;;;;5062519;28;20052;-86
2024/01/27 12:15:28;;;;;;;3.75;3.55;;;12.40;99.90;;;;;;5061400;28;20158;-85
2024/01/27 12:17:55;;;;;;;4.43;4.22;;;12.30;99.90;;;;;;5063552;28;20054;-85
2024/01/27 12:20:22;;;;;;;4.07;3.88;;;12.40;99.90;;;;;;5060173;28;20101;-84
2024/01/27 12:22:50;;;;;;;6.10;5.78;;;12.40;99.90;;;;;;5065020;28;20051;-85
2024/01/27 12:25:17;;;;;;;4.38;4.18;;;12.50;99.90;;;;;;5065168;28;20143;-85
2024/01/27 12:27:43;;;;;;;3.88;3.67;;;12.50;99.90;;;;;;5045212;28;20553;-84
2024/01/27 12:30:10;;;;;;;4.15;3.95;;;12.50;99.90;;;;;;5060986;28;20055;-85
2024/01/27 12:32:36;;;;;;;3.90;3.70;;;12.50;99.90;;;;;;5064354;28;20043;-85
2024/01/27 12:35:05;;;;;;;3.72;3.53;;;12.60;99.90;;;;;;5062918;28;20046;-84
2024/01/27 12:37:31;;;;;;;5.85;5.55;;;12.60;99.90;;;;;;5064819;28;20063;-84
2024/01/27 12:39:57;;;;;;;4.57;4.38;;;12.60;99.90;;;;;;5063807;28;20140;-84
2024/01/27 12:42:23;;;;;;;5.55;5.25;;;12.60;99.90;;;;;;5044148;28;20387;-83
2024/01/27 12:44:49;;;;;;;4.70;4.50;;;12.60;99.90;;;;;;5064766;28;20066;-85
2024/01/27 12:47:14;;;;;;;5.05;4.75;;;12.70;99.90;;;;;;5083994;28;20044;-85
2024/01/27 12:49:44;;;;;;;4.90;4.65;;;12.70;99.90;;;;;;5060792;28;20040;-84
2024/01/27 12:52:09;;;;;;;5.65;5.35;;;12.80;99.90;;;;;;5065095;28;20134;-84